sensor_id;sensor_type;location;lat;lon;timestamp;P1;durP1;ratioP1;P2;durP2;ratioP2
27039;SDS011;14589;51.578;7.306;2022-08-03T00:01:40;2.60;;;1.90;;
27039;SDS011;14589;51.578;7.306;2022-08-03T00:04:06;2.22;;;2.00;;
27039;SDS011;14589;51.578;7.306;2022-08-03T00:06:32;2.53;;;2.00;;
27039;SDS011;14589;51.578;7.306;2022-08-03T00:08:58;2.05;;;1.90;;
27039;SDS011;14589;51.578;7.306;2022-08-03T00:11:23;2.20;;;2.00;;
27039;SDS011;14589;51.578;7.306;2022-08-03T00:13:49;2.55;;;1.95;;
27039;SDS011;14589;51.578;7.306;2022-08-03T00:16:14;2.35;;;1.90;;
27039;SDS011;14589;51.578;7.306;2022-08-03T00:18:40;3.13;;;2.17;;
27039;SDS011;14589;51.578;7.306;2022-08-03T00:21:05;2.83;;;1.92;;
27039;SDS011;14589;51.578;7.306;2022-08-03T00:23:31;2.08;;;1.90;;
27039;SDS011;14589;51.578;7.306;2022-08-03T00:25:57;2.75;;;1.92;;
27039;SDS011;14589;51.578;7.306;2022-08-03T00:28:22;3.75;;;1.95;;
27039;SDS011;14589;51.578;7.306;2022-08-03T00:30:48;2.47;;;2.00;;
27039;SDS011;14589;51.578;7.306;2022-08-03T00:33:13;5.00;;;2.08;;
27039;SDS011;14589;51.578;7.306;2022-08-03T00:35:38;2.65;;;2.30;;
27039;SDS011;14589;51.578;7.306;2022-08-03T00:38:04;2.00;;;1.80;;
27039;SDS011;14589;51.578;7.306;2022-08-03T00:40:30;2.65;;;2.00;;
27039;SDS011;14589;51.578;7.306;2022-08-03T00:42:56;4.68;;;2.00;;
27039;SDS011;14589;51.578;7.306;2022-08-03T00:45:24;2.03;;;1.90;;
27039;SDS011;14589;51.578;7.306;2022-08-03T00:47:51;1.90;;;1.80;;
27039;SDS011;14589;51.578;7.306;2022-08-03T00:50:17;2.50;;;1.95;;
27039;SDS011;14589;51.578;7.306;2022-08-03T00:52:44;1.98;;;1.67;;
27039;SDS011;14589;51.578;7.306;2022-08-03T00:55:10;2.28;;;1.95;;
27039;SDS011;14589;51.578;7.306;2022-08-03T00:57:36;2.45;;;2.17;;
27039;SDS011;14589;51.578;7.306;2022-08-03T01:00:02;3.15;;;2.00;;
27039;SDS011;14589;51.578;7.306;2022-08-03T01:02:28;2.10;;;1.90;;
27039;SDS011;14589;51.578;7.306;2022-08-03T01:04:54;2.15;;;1.83;;
27039;SDS011;14589;51.578;7.306;2022-08-03T01:07:29;1.95;;;1.67;;
27039;SDS011;14589;51.578;7.306;2022-08-03T01:18:21;2.20;;;2.00;;
27039;SDS011;14589;51.578;7.306;2022-08-03T01:20:50;3.35;;;2.13;;
27039;SDS011;14589;51.578;7.306;2022-08-03T01:23:28;3.67;;;1.77;;
27039;SDS011;14589;51.578;7.306;2022-08-03T01:28:55;3.30;;;2.13;;
27039;SDS011;14589;51.578;7.306;2022-08-03T01:31:40;2.13;;;1.70;;
27039;SDS011;14589;51.578;7.306;2022-08-03T01:34:11;3.28;;;2.00;;
27039;SDS011;14589;51.578;7.306;2022-08-03T01:36:40;2.25;;;1.92;;
27039;SDS011;14589;51.578;7.306;2022-08-03T01:39:08;1.80;;;1.70;;
27039;SDS011;14589;51.578;7.306;2022-08-03T01:41:43;2.30;;;2.10;;
27039;SDS011;14589;51.578;7.306;2022-08-03T01:44:13;2.20;;;2.00;;
27039;SDS011;14589;51.578;7.306;2022-08-03T01:46:39;3.45;;;2.10;;
27039;SDS011;14589;51.578;7.306;2022-08-03T01:49:06;1.90;;;1.70;;
27039;SDS011;14589;51.578;7.306;2022-08-03T01:51:33;2.13;;;1.92;;
27039;SDS011;14589;51.578;7.306;2022-08-03T01:53:59;1.67;;;1.58;;
27039;SDS011;14589;51.578;7.306;2022-08-03T01:56:24;2.70;;;2.20;;
27039;SDS011;14589;51.578;7.306;2022-08-03T01:58:51;4.93;;;1.98;;
27039;SDS011;14589;51.578;7.306;2022-08-03T02:01:17;2.92;;;2.20;;
27039;SDS011;14589;51.578;7.306;2022-08-03T02:03:44;1.80;;;1.70;;
27039;SDS011;14589;51.578;7.306;2022-08-03T02:06:10;3.08;;;2.08;;
27039;SDS011;14589;51.578;7.306;2022-08-03T02:08:41;2.00;;;1.77;;
27039;SDS011;14589;51.578;7.306;2022-08-03T02:11:07;3.05;;;1.98;;
27039;SDS011;14589;51.578;7.306;2022-08-03T02:13:33;3.22;;;1.90;;
27039;SDS011;14589;51.578;7.306;2022-08-03T02:16:02;2.42;;;2.05;;
27039;SDS011;14589;51.578;7.306;2022-08-03T02:18:28;2.13;;;1.85;;
27039;SDS011;14589;51.578;7.306;2022-08-03T02:20:56;3.00;;;2.00;;
27039;SDS011;14589;51.578;7.306;2022-08-03T02:23:24;2.65;;;1.80;;
27039;SDS011;14589;51.578;7.306;2022-08-03T02:25:50;4.32;;;1.80;;
27039;SDS011;14589;51.578;7.306;2022-08-03T02:28:19;2.90;;;1.85;;
27039;SDS011;14589;51.578;7.306;2022-08-03T02:30:46;2.03;;;1.83;;
27039;SDS011;14589;51.578;7.306;2022-08-03T02:33:25;2.13;;;1.90;;
27039;SDS011;14589;51.578;7.306;2022-08-03T02:35:52;2.85;;;2.30;;
27039;SDS011;14589;51.578;7.306;2022-08-03T02:38:19;2.45;;;2.20;;
27039;SDS011;14589;51.578;7.306;2022-08-03T02:40:45;2.28;;;1.98;;
27039;SDS011;14589;51.578;7.306;2022-08-03T02:43:13;3.22;;;1.95;;
27039;SDS011;14589;51.578;7.306;2022-08-03T02:45:43;2.67;;;2.00;;
27039;SDS011;14589;51.578;7.306;2022-08-03T02:48:11;2.72;;;1.90;;
27039;SDS011;14589;51.578;7.306;2022-08-03T02:50:40;2.08;;;1.85;;
27039;SDS011;14589;51.578;7.306;2022-08-03T02:53:07;2.40;;;2.10;;
27039;SDS011;14589;51.578;7.306;2022-08-03T02:55:37;2.47;;;2.10;;
27039;SDS011;14589;51.578;7.306;2022-08-03T02:58:03;2.63;;;2.03;;
27039;SDS011;14589;51.578;7.306;2022-08-03T03:00:32;2.40;;;1.75;;
27039;SDS011;14589;51.578;7.306;2022-08-03T03:03:00;2.30;;;1.83;;
27039;SDS011;14589;51.578;7.306;2022-08-03T03:05:26;1.95;;;1.77;;
27039;SDS011;14589;51.578;7.306;2022-08-03T03:07:52;2.28;;;2.08;;
27039;SDS011;14589;51.578;7.306;2022-08-03T03:10:22;2.20;;;2.00;;
27039;SDS011;14589;51.578;7.306;2022-08-03T03:12:54;2.25;;;1.80;;
27039;SDS011;14589;51.578;7.306;2022-08-03T03:15:21;2.40;;;2.20;;
27039;SDS011;14589;51.578;7.306;2022-08-03T03:17:48;1.83;;;1.73;;
27039;SDS011;14589;51.578;7.306;2022-08-03T03:20:14;3.17;;;2.30;;
27039;SDS011;14589;51.578;7.306;2022-08-03T03:22:40;2.72;;;2.20;;
27039;SDS011;14589;51.578;7.306;2022-08-03T03:25:06;4.65;;;2.15;;
27039;SDS011;14589;51.578;7.306;2022-08-03T03:27:32;3.50;;;1.85;;
27039;SDS011;14589;51.578;7.306;2022-08-03T03:29:58;2.50;;;1.90;;
27039;SDS011;14589;51.578;7.306;2022-08-03T03:32:25;2.88;;;1.90;;
27039;SDS011;14589;51.578;7.306;2022-08-03T03:34:51;3.00;;;2.08;;
27039;SDS011;14589;51.578;7.306;2022-08-03T03:37:18;3.75;;;2.28;;
27039;SDS011;14589;51.578;7.306;2022-08-03T03:39:43;2.55;;;1.67;;
27039;SDS011;14589;51.578;7.306;2022-08-03T03:42:08;2.25;;;1.98;;
27039;SDS011;14589;51.578;7.306;2022-08-03T03:44:34;2.40;;;2.20;;
27039;SDS011;14589;51.578;7.306;2022-08-03T03:46:59;2.22;;;1.83;;
27039;SDS011;14589;51.578;7.306;2022-08-03T03:49:25;4.50;;;2.30;;
27039;SDS011;14589;51.578;7.306;2022-08-03T03:51:53;2.55;;;2.08;;
27039;SDS011;14589;51.578;7.306;2022-08-03T03:54:19;3.50;;;2.35;;
27039;SDS011;14589;51.578;7.306;2022-08-03T03:56:45;2.47;;;2.10;;
27039;SDS011;14589;51.578;7.306;2022-08-03T03:59:11;2.25;;;1.98;;
27039;SDS011;14589;51.578;7.306;2022-08-03T04:01:37;3.35;;;2.33;;
27039;SDS011;14589;51.578;7.306;2022-08-03T04:04:03;3.90;;;2.10;;
27039;SDS011;14589;51.578;7.306;2022-08-03T04:06:49;7.22;;;2.30;;
27039;SDS011;14589;51.578;7.306;2022-08-03T04:09:37;3.92;;;2.10;;
27039;SDS011;14589;51.578;7.306;2022-08-03T04:12:23;2.67;;;2.20;;
27039;SDS011;14589;51.578;7.306;2022-08-03T04:14:50;2.42;;;2.22;;
27039;SDS011;14589;51.578;7.306;2022-08-03T04:17:19;2.55;;;2.08;;
27039;SDS011;14589;51.578;7.306;2022-08-03T04:19:46;3.60;;;2.10;;
27039;SDS011;14589;51.578;7.306;2022-08-03T04:22:18;3.05;;;2.30;;
27039;SDS011;14589;51.578;7.306;2022-08-03T04:27:15;4.60;;;2.30;;
27039;SDS011;14589;51.578;7.306;2022-08-03T04:29:45;2.70;;;2.13;;
27039;SDS011;14589;51.578;7.306;2022-08-03T04:32:12;3.35;;;2.40;;
27039;SDS011;14589;51.578;7.306;2022-08-03T04:34:37;2.20;;;2.00;;
27039;SDS011;14589;51.578;7.306;2022-08-03T04:37:05;3.50;;;2.72;;
27039;SDS011;14589;51.578;7.306;2022-08-03T04:39:35;4.90;;;2.20;;
27039;SDS011;14589;51.578;7.306;2022-08-03T04:42:01;3.80;;;2.08;;
27039;SDS011;14589;51.578;7.306;2022-08-03T04:44:29;4.68;;;2.15;;
27039;SDS011;14589;51.578;7.306;2022-08-03T04:46:55;4.75;;;2.38;;
27039;SDS011;14589;51.578;7.306;2022-08-03T04:49:22;2.33;;;2.10;;
27039;SDS011;14589;51.578;7.306;2022-08-03T04:51:48;4.22;;;2.15;;
27039;SDS011;14589;51.578;7.306;2022-08-03T04:54:14;3.13;;;2.22;;
27039;SDS011;14589;51.578;7.306;2022-08-03T04:56:42;3.13;;;2.33;;
27039;SDS011;14589;51.578;7.306;2022-08-03T04:59:08;5.30;;;2.17;;
27039;SDS011;14589;51.578;7.306;2022-08-03T05:01:34;2.47;;;2.20;;
27039;SDS011;14589;51.578;7.306;2022-08-03T05:04:00;2.20;;;1.85;;
27039;SDS011;14589;51.578;7.306;2022-08-03T05:06:25;3.83;;;2.10;;
27039;SDS011;14589;51.578;7.306;2022-08-03T05:08:51;2.78;;;2.10;;
27039;SDS011;14589;51.578;7.306;2022-08-03T05:11:16;2.25;;;2.05;;
27039;SDS011;14589;51.578;7.306;2022-08-03T05:13:42;2.30;;;2.10;;
27039;SDS011;14589;51.578;7.306;2022-08-03T05:16:08;2.60;;;2.08;;
27039;SDS011;14589;51.578;7.306;2022-08-03T05:18:34;4.20;;;2.40;;
27039;SDS011;14589;51.578;7.306;2022-08-03T05:21:00;4.75;;;2.40;;
27039;SDS011;14589;51.578;7.306;2022-08-03T05:23:25;2.33;;;2.13;;
27039;SDS011;14589;51.578;7.306;2022-08-03T05:25:50;2.92;;;2.25;;
27039;SDS011;14589;51.578;7.306;2022-08-03T05:28:16;2.25;;;2.08;;
27039;SDS011;14589;51.578;7.306;2022-08-03T05:30:41;2.53;;;2.30;;
27039;SDS011;14589;51.578;7.306;2022-08-03T05:33:06;3.85;;;2.22;;
27039;SDS011;14589;51.578;7.306;2022-08-03T05:35:32;3.05;;;2.38;;
27039;SDS011;14589;51.578;7.306;2022-08-03T05:38:00;3.50;;;2.10;;
27039;SDS011;14589;51.578;7.306;2022-08-03T05:40:26;2.20;;;2.00;;
27039;SDS011;14589;51.578;7.306;2022-08-03T05:42:52;2.17;;;1.98;;
27039;SDS011;14589;51.578;7.306;2022-08-03T05:45:17;4.25;;;2.15;;
27039;SDS011;14589;51.578;7.306;2022-08-03T05:47:43;5.28;;;2.67;;
27039;SDS011;14589;51.578;7.306;2022-08-03T05:50:09;3.05;;;2.10;;
27039;SDS011;14589;51.578;7.306;2022-08-03T05:52:36;3.40;;;2.40;;
27039;SDS011;14589;51.578;7.306;2022-08-03T05:55:01;3.72;;;2.60;;
27039;SDS011;14589;51.578;7.306;2022-08-03T05:57:27;3.03;;;2.50;;
27039;SDS011;14589;51.578;7.306;2022-08-03T05:59:53;3.58;;;2.33;;
27039;SDS011;14589;51.578;7.306;2022-08-03T06:02:18;6.10;;;2.90;;
27039;SDS011;14589;51.578;7.306;2022-08-03T06:04:44;5.47;;;2.88;;
27039;SDS011;14589;51.578;7.306;2022-08-03T06:07:09;7.35;;;2.60;;
27039;SDS011;14589;51.578;7.306;2022-08-03T06:09:34;4.32;;;2.70;;
27039;SDS011;14589;51.578;7.306;2022-08-03T06:12:00;4.82;;;2.45;;
27039;SDS011;14589;51.578;7.306;2022-08-03T06:14:25;4.10;;;2.60;;
27039;SDS011;14589;51.578;7.306;2022-08-03T06:16:51;4.68;;;2.72;;
27039;SDS011;14589;51.578;7.306;2022-08-03T06:19:16;3.70;;;2.70;;
27039;SDS011;14589;51.578;7.306;2022-08-03T06:21:41;2.80;;;2.22;;
27039;SDS011;14589;51.578;7.306;2022-08-03T06:24:07;9.18;;;2.80;;
27039;SDS011;14589;51.578;7.306;2022-08-03T06:26:32;8.38;;;2.63;;
27039;SDS011;14589;51.578;7.306;2022-08-03T06:28:57;12.40;;;3.03;;
27039;SDS011;14589;51.578;7.306;2022-08-03T06:31:24;4.68;;;2.60;;
27039;SDS011;14589;51.578;7.306;2022-08-03T06:33:52;6.00;;;2.70;;
27039;SDS011;14589;51.578;7.306;2022-08-03T06:36:17;4.10;;;2.45;;
27039;SDS011;14589;51.578;7.306;2022-08-03T06:38:42;6.80;;;2.40;;
27039;SDS011;14589;51.578;7.306;2022-08-03T06:41:08;6.63;;;2.70;;
27039;SDS011;14589;51.578;7.306;2022-08-03T06:43:33;3.53;;;2.30;;
27039;SDS011;14589;51.578;7.306;2022-08-03T06:46:01;6.80;;;2.90;;
27039;SDS011;14589;51.578;7.306;2022-08-03T06:48:27;4.38;;;2.55;;
27039;SDS011;14589;51.578;7.306;2022-08-03T06:50:52;9.75;;;2.53;;
27039;SDS011;14589;51.578;7.306;2022-08-03T06:53:18;5.10;;;2.55;;
27039;SDS011;14589;51.578;7.306;2022-08-03T06:55:43;4.35;;;2.60;;
27039;SDS011;14589;51.578;7.306;2022-08-03T06:58:09;4.40;;;2.40;;
27039;SDS011;14589;51.578;7.306;2022-08-03T07:00:34;5.70;;;2.70;;
27039;SDS011;14589;51.578;7.306;2022-08-03T07:02:59;4.13;;;2.80;;
27039;SDS011;14589;51.578;7.306;2022-08-03T07:05:25;5.38;;;2.40;;
27039;SDS011;14589;51.578;7.306;2022-08-03T07:07:53;4.28;;;2.63;;
27039;SDS011;14589;51.578;7.306;2022-08-03T07:10:20;4.25;;;2.28;;
27039;SDS011;14589;51.578;7.306;2022-08-03T07:12:45;4.97;;;2.50;;
27039;SDS011;14589;51.578;7.306;2022-08-03T07:15:11;5.07;;;2.60;;
27039;SDS011;14589;51.578;7.306;2022-08-03T07:17:37;4.40;;;2.30;;
27039;SDS011;14589;51.578;7.306;2022-08-03T07:20:05;11.85;;;2.60;;
27039;SDS011;14589;51.578;7.306;2022-08-03T07:22:32;6.03;;;2.40;;
27039;SDS011;14589;51.578;7.306;2022-08-03T07:24:58;2.55;;;2.20;;
27039;SDS011;14589;51.578;7.306;2022-08-03T07:27:23;4.18;;;2.30;;
27039;SDS011;14589;51.578;7.306;2022-08-03T07:29:50;7.47;;;2.38;;
27039;SDS011;14589;51.578;7.306;2022-08-03T07:32:16;6.80;;;2.90;;
27039;SDS011;14589;51.578;7.306;2022-08-03T07:34:41;4.13;;;2.60;;
27039;SDS011;14589;51.578;7.306;2022-08-03T07:37:07;4.97;;;2.28;;
27039;SDS011;14589;51.578;7.306;2022-08-03T07:39:32;4.97;;;2.33;;
27039;SDS011;14589;51.578;7.306;2022-08-03T07:41:57;3.17;;;2.13;;
27039;SDS011;14589;51.578;7.306;2022-08-03T07:44:23;4.05;;;2.20;;
27039;SDS011;14589;51.578;7.306;2022-08-03T07:46:48;4.15;;;2.47;;
27039;SDS011;14589;51.578;7.306;2022-08-03T07:49:15;9.15;;;2.45;;
27039;SDS011;14589;51.578;7.306;2022-08-03T07:51:41;4.70;;;2.10;;
27039;SDS011;14589;51.578;7.306;2022-08-03T07:54:06;4.88;;;2.22;;
27039;SDS011;14589;51.578;7.306;2022-08-03T07:56:34;7.85;;;2.38;;
27039;SDS011;14589;51.578;7.306;2022-08-03T07:59:00;4.47;;;2.10;;
27039;SDS011;14589;51.578;7.306;2022-08-03T08:01:27;4.57;;;2.22;;
27039;SDS011;14589;51.578;7.306;2022-08-03T08:03:52;4.30;;;2.10;;
27039;SDS011;14589;51.578;7.306;2022-08-03T08:06:18;4.35;;;2.30;;
27039;SDS011;14589;51.578;7.306;2022-08-03T08:08:43;5.50;;;2.17;;
27039;SDS011;14589;51.578;7.306;2022-08-03T08:11:09;4.28;;;2.10;;
27039;SDS011;14589;51.578;7.306;2022-08-03T08:13:34;3.78;;;2.20;;
27039;SDS011;14589;51.578;7.306;2022-08-03T08:16:01;4.88;;;2.22;;
27039;SDS011;14589;51.578;7.306;2022-08-03T08:18:27;3.00;;;2.03;;
27039;SDS011;14589;51.578;7.306;2022-08-03T08:20:56;4.43;;;2.42;;
27039;SDS011;14589;51.578;7.306;2022-08-03T08:23:21;5.30;;;2.05;;
27039;SDS011;14589;51.578;7.306;2022-08-03T08:25:48;6.88;;;1.90;;
27039;SDS011;14589;51.578;7.306;2022-08-03T08:28:18;6.28;;;2.25;;
27039;SDS011;14589;51.578;7.306;2022-08-03T08:30:44;3.78;;;2.10;;
27039;SDS011;14589;51.578;7.306;2022-08-03T08:33:09;7.97;;;2.28;;
27039;SDS011;14589;51.578;7.306;2022-08-03T08:35:35;6.10;;;2.15;;
27039;SDS011;14589;51.578;7.306;2022-08-03T08:38:01;4.78;;;2.40;;
27039;SDS011;14589;51.578;7.306;2022-08-03T08:40:26;4.82;;;2.60;;
27039;SDS011;14589;51.578;7.306;2022-08-03T08:42:52;17.95;;;2.60;;
27039;SDS011;14589;51.578;7.306;2022-08-03T08:45:18;5.10;;;2.30;;
27039;SDS011;14589;51.578;7.306;2022-08-03T08:47:44;4.30;;;2.20;;
27039;SDS011;14589;51.578;7.306;2022-08-03T08:50:11;3.13;;;2.08;;
27039;SDS011;14589;51.578;7.306;2022-08-03T08:52:40;4.68;;;2.45;;
27039;SDS011;14589;51.578;7.306;2022-08-03T08:55:08;3.15;;;1.73;;
27039;SDS011;14589;51.578;7.306;2022-08-03T08:57:35;4.70;;;2.30;;
27039;SDS011;14589;51.578;7.306;2022-08-03T09:00:06;13.35;;;2.78;;
27039;SDS011;14589;51.578;7.306;2022-08-03T09:02:39;5.45;;;2.20;;
27039;SDS011;14589;51.578;7.306;2022-08-03T09:05:08;4.07;;;2.22;;
27039;SDS011;14589;51.578;7.306;2022-08-03T09:07:35;5.50;;;2.10;;
27039;SDS011;14589;51.578;7.306;2022-08-03T09:10:01;10.80;;;2.40;;
27039;SDS011;14589;51.578;7.306;2022-08-03T09:12:26;9.23;;;2.30;;
27039;SDS011;14589;51.578;7.306;2022-08-03T09:14:52;5.30;;;2.03;;
27039;SDS011;14589;51.578;7.306;2022-08-03T09:17:19;5.32;;;2.03;;
27039;SDS011;14589;51.578;7.306;2022-08-03T09:19:46;4.40;;;2.10;;
27039;SDS011;14589;51.578;7.306;2022-08-03T09:22:28;2.55;;;1.67;;
27039;SDS011;14589;51.578;7.306;2022-08-03T09:25:04;6.72;;;2.25;;
27039;SDS011;14589;51.578;7.306;2022-08-03T09:27:41;4.20;;;2.03;;
27039;SDS011;14589;51.578;7.306;2022-08-03T09:30:12;2.95;;;1.95;;
27039;SDS011;14589;51.578;7.306;2022-08-03T09:32:41;2.72;;;1.75;;
27039;SDS011;14589;51.578;7.306;2022-08-03T09:35:09;5.72;;;1.90;;
27039;SDS011;14589;51.578;7.306;2022-08-03T09:37:35;3.42;;;2.10;;
27039;SDS011;14589;51.578;7.306;2022-08-03T09:40:01;3.03;;;2.03;;
27039;SDS011;14589;51.578;7.306;2022-08-03T09:42:26;4.03;;;1.88;;
27039;SDS011;14589;51.578;7.306;2022-08-03T09:44:52;3.63;;;1.75;;
27039;SDS011;14589;51.578;7.306;2022-08-03T09:47:28;4.68;;;1.90;;
27039;SDS011;14589;51.578;7.306;2022-08-03T09:49:58;5.05;;;1.75;;
27039;SDS011;14589;51.578;7.306;2022-08-03T09:55:02;4.18;;;1.80;;
27039;SDS011;14589;51.578;7.306;2022-08-03T09:57:33;2.97;;;1.65;;
27039;SDS011;14589;51.578;7.306;2022-08-03T10:00:08;10.98;;;1.92;;
27039;SDS011;14589;51.578;7.306;2022-08-03T10:02:40;6.60;;;1.70;;
27039;SDS011;14589;51.578;7.306;2022-08-03T10:05:07;4.60;;;1.98;;
27039;SDS011;14589;51.578;7.306;2022-08-03T10:10:08;5.65;;;1.80;;
27039;SDS011;14589;51.578;7.306;2022-08-03T10:12:34;3.03;;;1.63;;
27039;SDS011;14589;51.578;7.306;2022-08-03T10:15:00;3.30;;;1.70;;
27039;SDS011;14589;51.578;7.306;2022-08-03T10:17:26;2.60;;;1.83;;
27039;SDS011;14589;51.578;7.306;2022-08-03T10:19:52;3.58;;;1.58;;
27039;SDS011;14589;51.578;7.306;2022-08-03T10:22:18;3.30;;;1.70;;
27039;SDS011;14589;51.578;7.306;2022-08-03T10:25:10;6.65;;;1.70;;
27039;SDS011;14589;51.578;7.306;2022-08-03T10:27:37;1.52;;;1.20;;
27039;SDS011;14589;51.578;7.306;2022-08-03T10:30:05;2.90;;;1.80;;
27039;SDS011;14589;51.578;7.306;2022-08-03T10:35:21;4.00;;;1.50;;
27039;SDS011;14589;51.578;7.306;2022-08-03T10:37:50;3.75;;;2.10;;
27039;SDS011;14589;51.578;7.306;2022-08-03T10:40:21;4.70;;;1.98;;
27039;SDS011;14589;51.578;7.306;2022-08-03T10:42:47;2.38;;;1.73;;
27039;SDS011;14589;51.578;7.306;2022-08-03T10:45:17;6.57;;;1.77;;
27039;SDS011;14589;51.578;7.306;2022-08-03T10:47:45;4.32;;;2.00;;
27039;SDS011;14589;51.578;7.306;2022-08-03T10:50:11;7.90;;;2.22;;
27039;SDS011;14589;51.578;7.306;2022-08-03T10:55:28;4.68;;;1.83;;
27039;SDS011;14589;51.578;7.306;2022-08-03T10:58:13;4.78;;;1.88;;
27039;SDS011;14589;51.578;7.306;2022-08-03T11:00:47;4.72;;;1.95;;
27039;SDS011;14589;51.578;7.306;2022-08-03T11:03:14;8.15;;;1.92;;
27039;SDS011;14589;51.578;7.306;2022-08-03T11:05:41;8.05;;;2.10;;
27039;SDS011;14589;51.578;7.306;2022-08-03T11:10:43;8.73;;;1.85;;
27039;SDS011;14589;51.578;7.306;2022-08-03T11:13:09;5.05;;;1.95;;
27039;SDS011;14589;51.578;7.306;2022-08-03T11:15:35;2.42;;;1.90;;
27039;SDS011;14589;51.578;7.306;2022-08-03T11:18:08;5.72;;;2.05;;
27039;SDS011;14589;51.578;7.306;2022-08-03T11:23:08;6.30;;;2.08;;
27039;SDS011;14589;51.578;7.306;2022-08-03T11:28:34;9.32;;;2.25;;
27039;SDS011;14589;51.578;7.306;2022-08-03T11:34:03;8.63;;;1.77;;
27039;SDS011;14589;51.578;7.306;2022-08-03T11:39:45;6.63;;;2.00;;
27039;SDS011;14589;51.578;7.306;2022-08-03T11:44:46;8.27;;;2.00;;
27039;SDS011;14589;51.578;7.306;2022-08-03T11:47:11;7.80;;;1.92;;
27039;SDS011;14589;51.578;7.306;2022-08-03T11:49:41;6.28;;;2.13;;
27039;SDS011;14589;51.578;7.306;2022-08-03T11:52:14;6.85;;;1.92;;
27039;SDS011;14589;51.578;7.306;2022-08-03T11:54:41;8.05;;;1.85;;
27039;SDS011;14589;51.578;7.306;2022-08-03T11:57:06;10.18;;;1.80;;
27039;SDS011;14589;51.578;7.306;2022-08-03T11:59:32;5.10;;;2.33;;
27039;SDS011;14589;51.578;7.306;2022-08-03T12:02:05;9.30;;;2.30;;
27039;SDS011;14589;51.578;7.306;2022-08-03T12:04:47;10.05;;;2.03;;
27039;SDS011;14589;51.578;7.306;2022-08-03T12:07:14;6.75;;;2.28;;
27039;SDS011;14589;51.578;7.306;2022-08-03T12:09:39;8.07;;;2.10;;
27039;SDS011;14589;51.578;7.306;2022-08-03T12:12:05;7.70;;;2.00;;
27039;SDS011;14589;51.578;7.306;2022-08-03T12:14:31;5.25;;;2.13;;
27039;SDS011;14589;51.578;7.306;2022-08-03T12:16:56;11.07;;;2.22;;
27039;SDS011;14589;51.578;7.306;2022-08-03T12:19:22;3.92;;;1.63;;
27039;SDS011;14589;51.578;7.306;2022-08-03T12:21:48;6.68;;;1.90;;
27039;SDS011;14589;51.578;7.306;2022-08-03T12:24:14;4.60;;;1.70;;
27039;SDS011;14589;51.578;7.306;2022-08-03T12:26:47;7.85;;;1.98;;
27039;SDS011;14589;51.578;7.306;2022-08-03T12:31:43;6.15;;;2.05;;
27039;SDS011;14589;51.578;7.306;2022-08-03T12:34:08;4.82;;;2.17;;
27039;SDS011;14589;51.578;7.306;2022-08-03T12:36:34;5.40;;;1.80;;
27039;SDS011;14589;51.578;7.306;2022-08-03T12:39:01;6.15;;;1.63;;
27039;SDS011;14589;51.578;7.306;2022-08-03T12:41:29;3.03;;;1.48;;
27039;SDS011;14589;51.578;7.306;2022-08-03T12:43:57;3.95;;;1.65;;
27039;SDS011;14589;51.578;7.306;2022-08-03T12:46:28;4.70;;;2.03;;
27039;SDS011;14589;51.578;7.306;2022-08-03T12:51:54;4.03;;;2.10;;
27039;SDS011;14589;51.578;7.306;2022-08-03T12:54:24;6.43;;;1.80;;
27039;SDS011;14589;51.578;7.306;2022-08-03T12:56:55;5.45;;;1.83;;
27039;SDS011;14589;51.578;7.306;2022-08-03T12:59:32;6.78;;;1.80;;
27039;SDS011;14589;51.578;7.306;2022-08-03T13:01:59;3.22;;;1.88;;
27039;SDS011;14589;51.578;7.306;2022-08-03T13:04:25;4.25;;;1.75;;
27039;SDS011;14589;51.578;7.306;2022-08-03T13:06:58;6.72;;;1.70;;
27039;SDS011;14589;51.578;7.306;2022-08-03T13:09:29;5.93;;;2.05;;
27039;SDS011;14589;51.578;7.306;2022-08-03T13:12:08;5.97;;;1.70;;
27039;SDS011;14589;51.578;7.306;2022-08-03T13:14:35;6.22;;;1.80;;
27039;SDS011;14589;51.578;7.306;2022-08-03T13:17:01;4.30;;;1.98;;
27039;SDS011;14589;51.578;7.306;2022-08-03T13:19:26;2.80;;;1.42;;
27039;SDS011;14589;51.578;7.306;2022-08-03T13:21:52;3.78;;;1.60;;
27039;SDS011;14589;51.578;7.306;2022-08-03T13:24:17;4.60;;;1.70;;
27039;SDS011;14589;51.578;7.306;2022-08-03T13:26:43;5.15;;;1.40;;
27039;SDS011;14589;51.578;7.306;2022-08-03T13:29:09;4.60;;;1.60;;
27039;SDS011;14589;51.578;7.306;2022-08-03T13:31:34;8.32;;;1.50;;
27039;SDS011;14589;51.578;7.306;2022-08-03T13:33:59;3.25;;;1.30;;
27039;SDS011;14589;51.578;7.306;2022-08-03T13:36:25;6.05;;;1.92;;
27039;SDS011;14589;51.578;7.306;2022-08-03T13:38:50;2.10;;;1.50;;
27039;SDS011;14589;51.578;7.306;2022-08-03T13:41:16;3.53;;;1.35;;
27039;SDS011;14589;51.578;7.306;2022-08-03T13:43:41;2.20;;;1.52;;
27039;SDS011;14589;51.578;7.306;2022-08-03T13:46:06;2.72;;;1.42;;
27039;SDS011;14589;51.578;7.306;2022-08-03T13:48:32;7.15;;;1.60;;
27039;SDS011;14589;51.578;7.306;2022-08-03T13:50:57;2.85;;;1.20;;
27039;SDS011;14589;51.578;7.306;2022-08-03T13:53:23;3.60;;;1.20;;
27039;SDS011;14589;51.578;7.306;2022-08-03T13:55:48;4.10;;;1.20;;
27039;SDS011;14589;51.578;7.306;2022-08-03T13:58:14;2.67;;;1.50;;
27039;SDS011;14589;51.578;7.306;2022-08-03T14:00:39;4.47;;;1.50;;
27039;SDS011;14589;51.578;7.306;2022-08-03T14:03:05;5.68;;;1.60;;
27039;SDS011;14589;51.578;7.306;2022-08-03T14:05:30;5.35;;;1.50;;
27039;SDS011;14589;51.578;7.306;2022-08-03T14:07:56;3.88;;;1.38;;
27039;SDS011;14589;51.578;7.306;2022-08-03T14:10:22;3.15;;;1.30;;
27039;SDS011;14589;51.578;7.306;2022-08-03T14:12:47;9.55;;;1.90;;
27039;SDS011;14589;51.578;7.306;2022-08-03T14:15:13;3.35;;;1.50;;
27039;SDS011;14589;51.578;7.306;2022-08-03T14:17:38;3.92;;;1.38;;
27039;SDS011;14589;51.578;7.306;2022-08-03T14:20:05;4.75;;;1.55;;
27039;SDS011;14589;51.578;7.306;2022-08-03T14:22:31;3.72;;;1.30;;
27039;SDS011;14589;51.578;7.306;2022-08-03T14:24:57;2.72;;;1.52;;
27039;SDS011;14589;51.578;7.306;2022-08-03T14:27:22;5.82;;;1.70;;
27039;SDS011;14589;51.578;7.306;2022-08-03T14:29:47;3.05;;;1.42;;
27039;SDS011;14589;51.578;7.306;2022-08-03T14:32:13;2.40;;;1.40;;
27039;SDS011;14589;51.578;7.306;2022-08-03T14:34:38;5.20;;;1.23;;
27039;SDS011;14589;51.578;7.306;2022-08-03T14:37:03;2.75;;;1.15;;
27039;SDS011;14589;51.578;7.306;2022-08-03T14:39:29;4.03;;;1.50;;
27039;SDS011;14589;51.578;7.306;2022-08-03T14:41:54;7.57;;;1.60;;
27039;SDS011;14589;51.578;7.306;2022-08-03T14:44:20;2.88;;;1.42;;
27039;SDS011;14589;51.578;7.306;2022-08-03T14:46:45;4.38;;;1.48;;
27039;SDS011;14589;51.578;7.306;2022-08-03T14:49:10;3.35;;;1.27;;
27039;SDS011;14589;51.578;7.306;2022-08-03T14:51:36;2.30;;;1.50;;
27039;SDS011;14589;51.578;7.306;2022-08-03T14:54:01;4.82;;;1.48;;
27039;SDS011;14589;51.578;7.306;2022-08-03T14:56:27;2.90;;;1.55;;
27039;SDS011;14589;51.578;7.306;2022-08-03T14:58:52;3.97;;;1.73;;
27039;SDS011;14589;51.578;7.306;2022-08-03T15:01:17;5.78;;;1.80;;
27039;SDS011;14589;51.578;7.306;2022-08-03T15:03:43;7.05;;;1.75;;
27039;SDS011;14589;51.578;7.306;2022-08-03T15:06:10;3.50;;;1.50;;
27039;SDS011;14589;51.578;7.306;2022-08-03T15:08:36;4.13;;;1.52;;
27039;SDS011;14589;51.578;7.306;2022-08-03T15:11:01;3.15;;;1.50;;
27039;SDS011;14589;51.578;7.306;2022-08-03T15:13:27;4.85;;;1.40;;
27039;SDS011;14589;51.578;7.306;2022-08-03T15:15:52;6.55;;;1.52;;
27039;SDS011;14589;51.578;7.306;2022-08-03T15:18:18;2.50;;;1.50;;
27039;SDS011;14589;51.578;7.306;2022-08-03T15:20:44;3.10;;;1.80;;
27039;SDS011;14589;51.578;7.306;2022-08-03T15:23:10;3.65;;;1.70;;
27039;SDS011;14589;51.578;7.306;2022-08-03T15:25:36;3.58;;;1.60;;
27039;SDS011;14589;51.578;7.306;2022-08-03T15:28:01;4.20;;;1.60;;
27039;SDS011;14589;51.578;7.306;2022-08-03T15:30:27;2.55;;;1.52;;
27039;SDS011;14589;51.578;7.306;2022-08-03T15:32:52;9.65;;;1.60;;
27039;SDS011;14589;51.578;7.306;2022-08-03T15:35:18;6.38;;;1.63;;